createdAt,value
2022-11-10T00:01:10.901Z,8.80
2022-11-10T00:03:59.038Z,8.70
2022-11-10T00:06:49.881Z,8.70
2022-11-10T00:09:37.308Z,8.70
2022-11-10T00:12:24.269Z,8.70
2022-11-10T00:15:30.340Z,8.60
2022-11-10T00:18:17.506Z,8.60
2022-11-10T00:21:09.976Z,8.50
2022-11-10T00:23:57.667Z,8.30
2022-11-10T00:26:45.236Z,8.10
2022-11-10T00:29:32.701Z,8.00
2022-11-10T00:32:19.983Z,8.00
2022-11-10T00:35:08.044Z,8.00
2022-11-10T00:37:57.898Z,8.10
2022-11-10T00:40:45.132Z,8.10
2022-11-10T00:43:33.108Z,8.20
2022-11-10T00:46:22.331Z,8.20
2022-11-10T00:49:08.915Z,8.20
2022-11-10T00:51:56.449Z,8.10
2022-11-10T00:54:43.688Z,8.00
2022-11-10T00:57:31.285Z,8.10
2022-11-10T01:00:18.858Z,8.20
2022-11-10T01:03:06.336Z,8.20
2022-11-10T01:05:53.722Z,8.10
2022-11-10T01:08:42.295Z,8.10
2022-11-10T01:11:29.622Z,8.00
2022-11-10T01:14:16.857Z,8.10
2022-11-10T01:17:04.490Z,8.20
2022-11-10T01:19:54.419Z,8.30
2022-11-10T01:22:42.103Z,8.40
2022-11-10T01:25:29.399Z,8.50
2022-11-10T01:28:16.991Z,8.70
2022-11-10T01:31:10.206Z,8.80
2022-11-10T01:33:58.974Z,8.80
2022-11-10T01:36:47.205Z,8.70
2022-11-10T01:39:34.559Z,8.70
2022-11-10T01:42:29.975Z,8.70
2022-11-10T01:45:29.330Z,8.60
2022-11-10T01:48:19.608Z,8.70
2022-11-10T01:51:22.026Z,8.70
2022-11-10T01:54:15.589Z,8.70
2022-11-10T01:57:06.419Z,8.70
2022-11-10T01:59:56.667Z,8.60
2022-11-10T02:03:04.960Z,8.60
2022-11-10T02:05:53.670Z,8.70
2022-11-10T02:08:43.022Z,8.70
2022-11-10T02:11:32.798Z,8.70
2022-11-10T02:14:20.557Z,8.80
2022-11-10T02:17:07.923Z,8.90
2022-11-10T02:19:58.430Z,9.00
2022-11-10T02:22:46.015Z,9.10
2022-11-10T02:25:34.045Z,9.10
2022-11-10T02:28:21.614Z,9.20
2022-11-10T02:31:09.648Z,9.20
2022-11-10T02:33:57.098Z,9.20
2022-11-10T02:36:44.951Z,9.20
2022-11-10T02:39:32.251Z,9.20
2022-11-10T02:42:19.513Z,9.20
2022-11-10T02:45:08.687Z,9.20
2022-11-10T02:47:56.305Z,9.20
2022-11-10T02:50:44.435Z,9.30
2022-11-10T02:53:31.623Z,9.30
2022-11-10T02:56:32.038Z,9.40
2022-11-10T02:59:29.041Z,9.40
2022-11-10T03:02:23.126Z,9.40
2022-11-10T03:05:10.692Z,9.40
2022-11-10T03:08:00.571Z,9.40
2022-11-10T03:10:47.996Z,9.40
2022-11-10T03:13:51.614Z,9.40
2022-11-10T03:16:24.270Z,9.30
2022-11-10T03:19:11.530Z,9.20
2022-11-10T03:21:58.870Z,9.30
2022-11-10T03:24:46.026Z,9.20
2022-11-10T03:27:33.563Z,9.20
2022-11-10T03:30:20.738Z,9.20
2022-11-10T03:33:08.189Z,9.20
2022-11-10T03:35:55.439Z,9.20
2022-11-10T03:38:43.070Z,9.30
2022-11-10T03:41:30.050Z,9.30
2022-11-10T03:44:17.500Z,9.30
2022-11-10T03:47:04.880Z,9.40
2022-11-10T03:49:52.370Z,9.40
2022-11-10T03:52:41.130Z,9.40
2022-11-10T03:55:28.497Z,9.40
2022-11-10T03:58:15.843Z,9.40
2022-11-10T04:01:03.131Z,9.40
2022-11-10T04:03:51.758Z,9.30
2022-11-10T04:06:57.567Z,9.30
2022-11-10T04:09:44.924Z,9.30
2022-11-10T04:12:50.016Z,9.20
2022-11-10T04:15:43.217Z,9.10
2022-11-10T04:18:30.794Z,9.10
2022-11-10T04:21:18.568Z,9.00
2022-11-10T04:24:05.876Z,9.10
2022-11-10T04:26:53.618Z,9.00
2022-11-10T04:29:41.096Z,9.00
2022-11-10T04:32:28.294Z,9.00
2022-11-10T04:35:15.727Z,9.10
2022-11-10T04:38:02.865Z,9.10
2022-11-10T04:40:49.683Z,9.00
2022-11-10T04:43:37.811Z,8.90
2022-11-10T04:46:28.697Z,9.00
2022-11-10T04:49:16.155Z,9.00
2022-11-10T04:52:03.715Z,9.00
2022-11-10T04:54:51.037Z,9.00
2022-11-10T04:57:38.764Z,8.90
2022-11-10T05:00:25.968Z,8.90
2022-11-10T05:03:13.903Z,8.90
2022-11-10T05:06:01.309Z,8.80
2022-11-10T05:08:48.853Z,8.80
2022-11-10T05:11:36.209Z,8.70
2022-11-10T05:14:23.729Z,8.70
2022-11-10T05:17:11.231Z,8.60
2022-11-10T05:19:58.464Z,8.60
2022-11-10T05:22:49.332Z,8.50
2022-11-10T05:25:38.679Z,8.50
2022-11-10T05:28:25.829Z,8.50
2022-11-10T05:31:13.830Z,8.50
2022-11-10T05:34:01.246Z,8.40
2022-11-10T05:36:48.538Z,8.40
2022-11-10T05:39:35.769Z,8.30
2022-11-10T05:42:22.886Z,8.30
2022-11-10T05:45:10.647Z,8.10
2022-11-10T05:47:57.968Z,8.10
2022-11-10T05:50:46.356Z,8.00
2022-11-10T05:53:33.874Z,8.00
2022-11-10T05:56:21.006Z,8.00
2022-11-10T05:59:07.972Z,7.90
2022-11-10T06:01:55.528Z,7.90
2022-11-10T06:04:43.038Z,7.80
2022-11-10T06:07:30.577Z,7.70
2022-11-10T06:10:18.126Z,7.70
2022-11-10T06:13:06.206Z,7.70
2022-11-10T06:15:53.469Z,7.80
2022-11-10T06:18:40.960Z,7.80
2022-11-10T06:21:28.199Z,7.70
2022-11-10T06:24:15.737Z,7.60
2022-11-10T06:27:03.004Z,7.70
2022-11-10T06:29:50.418Z,7.60
2022-11-10T06:32:37.822Z,7.50
2022-11-10T06:35:25.899Z,7.50
2022-11-10T06:38:13.349Z,7.40
2022-11-10T06:41:00.869Z,7.40
2022-11-10T06:43:47.953Z,7.40
2022-11-10T06:46:39.620Z,7.40
2022-11-10T06:49:24.197Z,7.40
2022-11-10T06:52:11.775Z,7.30
2022-11-10T06:54:59.767Z,7.30
2022-11-10T06:57:47.227Z,7.30
2022-11-10T07:00:34.752Z,7.30
2022-11-10T07:03:22.140Z,7.30
2022-11-10T07:06:09.622Z,7.30
2022-11-10T07:08:57.093Z,7.30
2022-11-10T07:11:44.524Z,7.00
2022-11-10T07:14:32.082Z,6.90
2022-11-10T07:17:20.261Z,6.80
2022-11-10T07:20:08.912Z,6.80
2022-11-10T07:23:04.336Z,7.00
2022-11-10T07:25:51.665Z,7.20
2022-11-10T07:28:38.930Z,7.30
2022-11-10T07:31:26.316Z,7.40
2022-11-10T07:34:13.858Z,7.60
2022-11-10T07:37:01.555Z,7.70
2022-11-10T07:39:49.033Z,7.90
2022-11-10T07:42:41.007Z,8.00
2022-11-10T07:45:28.844Z,8.20
2022-11-10T07:48:16.547Z,8.30
2022-11-10T07:51:03.928Z,8.30
2022-11-10T07:53:51.308Z,8.40
2022-11-10T07:56:38.799Z,8.50
2022-11-10T07:59:26.387Z,8.70
2022-11-10T08:02:13.612Z,8.90
2022-11-10T08:05:00.697Z,9.00
2022-11-10T08:07:48.254Z,9.10
2022-11-10T08:10:36.190Z,9.20
2022-11-10T08:13:23.877Z,9.30
2022-11-10T08:16:11.334Z,9.30
2022-11-10T08:18:58.610Z,9.40
2022-11-10T08:21:46.026Z,9.40
2022-11-10T08:24:33.268Z,9.40
2022-11-10T08:27:21.029Z,9.60
2022-11-10T08:30:09.209Z,9.70
2022-11-10T08:32:59.098Z,9.90
2022-11-10T08:35:49.126Z,10.00
2022-11-10T08:38:36.713Z,10.10
2022-11-10T08:41:23.909Z,10.20
2022-11-10T08:44:13.557Z,10.30
2022-11-10T08:47:01.369Z,10.30
2022-11-10T08:49:48.947Z,10.30
2022-11-10T08:52:36.037Z,10.50
2022-11-10T08:55:23.829Z,10.80
2022-11-10T08:58:16.516Z,11.30
2022-11-10T09:01:03.489Z,11.80
2022-11-10T09:03:50.963Z,12.10
2022-11-10T09:06:38.267Z,11.90
2022-11-10T09:09:27.076Z,11.90
2022-11-10T09:12:14.583Z,11.90
2022-11-10T09:15:02.136Z,12.20
2022-11-10T09:17:49.605Z,12.40
2022-11-10T09:20:38.798Z,12.40
2022-11-10T09:23:28.001Z,12.30
2022-11-10T09:26:15.209Z,12.10
2022-11-10T09:29:02.773Z,12.30
2022-11-10T09:31:51.580Z,12.30
2022-11-10T09:34:39.076Z,12.60
2022-11-10T09:37:26.484Z,12.90
2022-11-10T09:40:19.938Z,12.90
2022-11-10T09:43:08.969Z,12.90
2022-11-10T09:45:59.343Z,12.90
2022-11-10T09:48:52.719Z,13.10
2022-11-10T09:51:48.135Z,13.10
2022-11-10T09:54:41.618Z,13.40
2022-11-10T09:57:30.466Z,13.50
2022-11-10T10:00:18.863Z,13.70
2022-11-10T10:03:07.994Z,14.00
2022-11-10T10:05:58.371Z,13.90
2022-11-10T10:09:19.110Z,13.90
2022-11-10T10:12:33.789Z,13.90
2022-11-10T10:15:30.234Z,14.00
2022-11-10T10:18:38.660Z,13.90
2022-11-10T10:21:49.059Z,13.80
2022-11-10T10:24:38.582Z,13.80
2022-11-10T10:27:30.451Z,13.80
2022-11-10T10:30:22.173Z,13.70
2022-11-10T10:33:15.622Z,13.60
2022-11-10T10:36:05.561Z,13.50
2022-11-10T10:39:05.167Z,13.50
2022-11-10T10:41:55.057Z,13.50
2022-11-10T10:44:46.708Z,13.30
2022-11-10T10:47:41.292Z,13.20
2022-11-10T10:50:36.689Z,13.30
2022-11-10T10:53:29.279Z,13.30
2022-11-10T10:56:22.825Z,13.50
2022-11-10T10:59:13.547Z,13.70
2022-11-10T11:02:00.962Z,13.70
2022-11-10T11:04:49.907Z,13.80
2022-11-10T11:07:37.253Z,13.80
2022-11-10T11:10:27.803Z,13.80
2022-11-10T11:13:27.468Z,14.00
2022-11-10T11:16:14.775Z,13.90
2022-11-10T11:19:02.212Z,13.70
2022-11-10T11:21:59.344Z,13.70
2022-11-10T11:25:12.285Z,13.90
2022-11-10T11:28:17.792Z,14.20
2022-11-10T11:31:16.848Z,14.40
2022-11-10T11:34:12.588Z,14.10
2022-11-10T11:37:08.501Z,14.10
2022-11-10T11:40:21.274Z,14.10
2022-11-10T11:43:14.376Z,14.10
2022-11-10T11:46:16.573Z,14.10
2022-11-10T11:49:25.372Z,14.00
2022-11-10T11:52:15.945Z,14.00
2022-11-10T11:55:30.812Z,14.00
2022-11-10T11:58:36.662Z,14.00
2022-11-10T12:01:55.341Z,14.20
2022-11-10T12:04:48.740Z,14.30
2022-11-10T12:07:57.186Z,14.40
2022-11-10T12:10:59.533Z,14.40
2022-11-10T12:13:52.806Z,14.50
2022-11-10T12:16:43.448Z,14.80
2022-11-10T12:19:36.703Z,14.80
2022-11-10T12:22:30.014Z,14.80
2022-11-10T12:25:26.206Z,15.00
2022-11-10T12:28:22.795Z,15.30
2022-11-10T12:31:13.403Z,15.50
2022-11-10T12:34:09.292Z,15.60
2022-11-10T12:36:57.482Z,15.70
2022-11-10T12:39:51.785Z,15.80
2022-11-10T12:42:39.602Z,16.00
2022-11-10T12:45:39.239Z,16.20
2022-11-10T12:48:30.311Z,16.30
2022-11-10T12:51:35.684Z,16.40
2022-11-10T12:54:26.124Z,16.50
2022-11-10T12:57:16.444Z,16.60
2022-11-10T13:00:12.869Z,16.80
2022-11-10T13:03:00.127Z,16.50
2022-11-10T13:05:53.169Z,16.40
2022-11-10T13:08:47.563Z,16.40
2022-11-10T13:11:37.135Z,16.50
2022-11-10T13:14:26.766Z,16.50
2022-11-10T13:17:33.376Z,16.40
2022-11-10T13:20:42.224Z,16.30
2022-11-10T13:23:35.804Z,16.30
2022-11-10T13:26:44.590Z,16.40
2022-11-10T13:29:49.629Z,16.30
2022-11-10T13:32:37.382Z,16.30
2022-11-10T13:35:40.123Z,16.10
2022-11-10T13:38:39.371Z,16.30
2022-11-10T13:41:28.075Z,16.30
2022-11-10T13:44:33.450Z,16.40
2022-11-10T13:47:35.749Z,16.30
2022-11-10T13:50:42.531Z,16.30
2022-11-10T13:53:48.135Z,16.20
2022-11-10T13:57:13.274Z,16.30
2022-11-10T14:00:03.401Z,16.30
2022-11-10T14:02:53.785Z,16.30
2022-11-10T14:05:43.866Z,16.20
2022-11-10T14:08:34.017Z,16.20
2022-11-10T14:11:24.535Z,16.30
2022-11-10T14:14:21.874Z,16.20
2022-11-10T14:17:11.362Z,16.10
2022-11-10T14:20:00.133Z,16.00
2022-11-10T14:22:49.845Z,15.90
2022-11-10T14:25:43.233Z,15.90
2022-11-10T14:28:33.783Z,15.90
2022-11-10T14:31:26.787Z,15.80
2022-11-10T14:34:16.592Z,15.70
2022-11-10T14:37:05.309Z,15.80
2022-11-10T14:40:02.131Z,15.80
2022-11-10T14:42:49.419Z,15.70
2022-11-10T14:45:37.939Z,15.70
2022-11-10T14:48:28.445Z,15.60
2022-11-10T14:51:25.664Z,15.60
2022-11-10T14:54:15.585Z,15.50
2022-11-10T14:57:02.691Z,15.40
2022-11-10T14:59:49.963Z,15.40
2022-11-10T15:02:39.218Z,15.30
2022-11-10T15:05:27.071Z,15.30
2022-11-10T15:08:16.099Z,15.20
2022-11-10T15:11:03.941Z,15.00
2022-11-10T15:13:53.005Z,14.90
2022-11-10T15:16:41.200Z,14.90
2022-11-10T15:19:33.927Z,14.80
2022-11-10T15:22:25.356Z,14.80
2022-11-10T15:25:18.509Z,14.60
2022-11-10T15:28:26.442Z,14.50
2022-11-10T15:31:29.155Z,14.30
2022-11-10T15:34:42.399Z,14.20
2022-11-10T15:37:32.065Z,14.10
2022-11-10T15:40:37.191Z,14.00
2022-11-10T15:43:27.580Z,14.00
2022-11-10T15:46:18.702Z,13.90
2022-11-10T15:49:11.987Z,13.80
2022-11-10T15:52:02.039Z,13.80
2022-11-10T15:54:51.576Z,13.70
2022-11-10T15:57:38.596Z,13.70
2022-11-10T16:00:25.811Z,13.60
2022-11-10T16:03:19.076Z,13.60
2022-11-10T16:06:06.674Z,13.50
2022-11-10T16:08:54.132Z,13.40
2022-11-10T16:11:45.344Z,13.40
2022-11-10T16:14:32.536Z,13.40
2022-11-10T16:17:21.538Z,13.40
2022-11-10T16:20:17.352Z,13.50
2022-11-10T16:23:04.681Z,13.50
2022-11-10T16:25:54.591Z,13.40
2022-11-10T16:28:43.290Z,13.30
2022-11-10T16:31:32.463Z,13.30
2022-11-10T16:34:21.362Z,13.20
2022-11-10T16:37:11.885Z,13.20
2022-11-10T16:39:59.447Z,13.10
2022-11-10T16:42:46.723Z,13.10
2022-11-10T16:45:36.889Z,13.00
2022-11-10T16:48:27.102Z,12.90
2022-11-10T16:51:15.077Z,12.80
2022-11-10T16:54:02.788Z,12.90
2022-11-10T16:56:51.994Z,12.80
2022-11-10T16:59:38.990Z,12.80
2022-11-10T17:02:34.088Z,12.70
2022-11-10T17:05:23.129Z,12.60
2022-11-10T17:08:13.435Z,12.50
2022-11-10T17:11:01.783Z,12.40
2022-11-10T17:13:49.146Z,12.30
2022-11-10T17:16:38.523Z,12.10
2022-11-10T17:19:28.733Z,12.00
2022-11-10T17:22:18.747Z,11.90
2022-11-10T17:25:06.333Z,11.80
2022-11-10T17:27:54.235Z,11.60
2022-11-10T17:30:42.565Z,11.50
2022-11-10T17:33:30.174Z,11.40
2022-11-10T17:36:23.690Z,11.30
2022-11-10T17:39:16.109Z,11.20
2022-11-10T17:42:03.627Z,11.20
2022-11-10T17:44:53.903Z,11.10
2022-11-10T17:47:41.553Z,10.90
2022-11-10T17:50:32.091Z,10.90
2022-11-10T17:53:29.165Z,10.80
2022-11-10T17:56:16.614Z,10.70
2022-11-10T17:59:04.081Z,10.60
2022-11-10T18:01:53.020Z,10.50
2022-11-10T18:04:40.216Z,10.30
2022-11-10T18:07:27.555Z,10.20
2022-11-10T18:10:15.833Z,10.30
2022-11-10T18:13:03.168Z,10.20
2022-11-10T18:15:52.205Z,10.20
2022-11-10T18:21:49.310Z,9.80
2022-11-10T18:24:37.075Z,9.70
2022-11-10T18:27:25.418Z,9.70
2022-11-10T18:30:12.951Z,9.70
2022-11-10T18:33:05.983Z,9.50
2022-11-10T18:35:56.831Z,9.40
2022-11-10T18:38:43.876Z,9.30
2022-11-10T18:41:51.793Z,9.30
2022-11-10T18:44:38.986Z,9.40
2022-11-10T18:47:26.191Z,9.50
2022-11-10T18:50:13.793Z,9.50
2022-11-10T18:53:01.114Z,9.60
2022-11-10T18:55:55.566Z,9.70
2022-11-10T18:58:43.466Z,9.60
2022-11-10T19:01:31.329Z,9.70
2022-11-10T19:04:18.510Z,9.80
2022-11-10T19:07:06.702Z,9.90
2022-11-10T19:09:54.191Z,9.90
2022-11-10T19:12:41.696Z,9.90
2022-11-10T19:15:28.980Z,10.00
2022-11-10T19:18:16.802Z,10.00
2022-11-10T19:21:16.020Z,10.10
2022-11-10T19:24:03.243Z,10.10
2022-11-10T19:26:54.221Z,10.10
2022-11-10T19:29:41.709Z,10.00
2022-11-10T19:32:30.108Z,10.00
2022-11-10T19:35:18.016Z,10.00
2022-11-10T19:38:05.763Z,10.00
2022-11-10T19:40:56.016Z,10.00
2022-11-10T19:43:47.456Z,10.00
2022-11-10T19:46:34.264Z,10.00
2022-11-10T19:49:23.001Z,9.90
2022-11-10T19:52:10.300Z,9.90
2022-11-10T19:54:57.720Z,9.90
2022-11-10T19:57:45.190Z,9.80
2022-11-10T20:00:32.714Z,9.80
2022-11-10T20:03:20.242Z,9.80
2022-11-10T20:06:10.841Z,9.80
2022-11-10T20:08:58.420Z,9.80
2022-11-10T20:11:46.293Z,9.80
2022-11-10T20:14:33.962Z,9.80
2022-11-10T20:17:21.567Z,9.70
2022-11-10T20:20:09.195Z,9.60
2022-11-10T20:22:58.078Z,9.50
2022-11-10T20:25:45.331Z,9.40
2022-11-10T20:28:33.718Z,9.40
2022-11-10T20:31:24.495Z,9.30
2022-11-10T20:34:12.001Z,9.20
2022-11-10T20:36:59.198Z,9.20
2022-11-10T20:39:46.651Z,9.10
2022-11-10T20:42:37.792Z,9.10
2022-11-10T20:45:24.282Z,9.00
2022-11-10T20:48:11.741Z,8.90
2022-11-10T20:51:00.472Z,8.90
2022-11-10T20:53:48.926Z,8.80
2022-11-10T20:56:36.357Z,8.70
2022-11-10T20:59:23.881Z,8.60
2022-11-10T21:02:13.208Z,8.60
2022-11-10T21:05:00.750Z,8.60
2022-11-10T21:07:48.276Z,8.60
2022-11-10T21:10:35.579Z,8.50
2022-11-10T21:13:24.369Z,8.40
2022-11-10T21:16:12.001Z,8.30
2022-11-10T21:18:59.736Z,8.20
2022-11-10T21:21:47.859Z,8.20
2022-11-10T21:24:35.459Z,8.20
2022-11-10T21:27:22.696Z,8.10
2022-11-10T21:30:14.293Z,8.10
2022-11-10T21:33:01.459Z,8.20
2022-11-10T21:35:53.242Z,8.30
2022-11-10T21:38:40.855Z,8.30
2022-11-10T21:41:28.066Z,8.40
2022-11-10T21:44:15.262Z,8.50
2022-11-10T21:47:04.506Z,8.50
2022-11-10T21:49:54.663Z,8.50
2022-11-10T21:52:41.787Z,8.50
2022-11-10T21:55:29.186Z,8.60
2022-11-10T21:58:16.386Z,8.60
2022-11-10T22:01:05.986Z,8.60
2022-11-10T22:03:54.480Z,8.50
2022-11-10T22:06:59.973Z,8.50
2022-11-10T22:10:05.299Z,8.50
2022-11-10T22:13:12.590Z,8.50
2022-11-10T22:16:13.644Z,8.50
2022-11-10T22:19:00.949Z,8.50
2022-11-10T22:21:48.818Z,8.50
2022-11-10T22:24:36.219Z,8.40
2022-11-10T22:27:23.653Z,8.20
2022-11-10T22:30:11.363Z,8.10
2022-11-10T22:33:00.492Z,7.90
2022-11-10T22:35:47.650Z,7.90
2022-11-10T22:38:36.403Z,7.90
2022-11-10T22:41:41.565Z,7.70
2022-11-10T22:44:28.804Z,7.60
2022-11-10T22:47:16.222Z,7.50
2022-11-10T22:50:03.625Z,7.50
2022-11-10T22:52:51.669Z,7.40
2022-11-10T22:55:39.174Z,7.30
2022-11-10T22:58:26.292Z,7.40
2022-11-10T23:01:13.953Z,7.40
2022-11-10T23:04:02.433Z,7.30
2022-11-10T23:06:49.846Z,7.30
2022-11-10T23:09:37.315Z,7.20
2022-11-10T23:12:24.594Z,7.10
2022-11-10T23:15:12.113Z,6.90
2022-11-10T23:18:03.863Z,6.70
2022-11-10T23:20:47.996Z,6.60
2022-11-10T23:23:37.214Z,6.40
2022-11-10T23:26:26.921Z,6.30
2022-11-10T23:29:13.852Z,6.20
2022-11-10T23:32:01.226Z,6.20
2022-11-10T23:34:48.634Z,6.10
2022-11-10T23:37:35.906Z,6.10
2022-11-10T23:40:26.202Z,6.10
2022-11-10T23:43:13.286Z,6.20
2022-11-10T23:46:08.320Z,6.20
2022-11-10T23:48:49.880Z,6.30
2022-11-10T23:51:41.982Z,6.20
2022-11-10T23:54:29.147Z,6.10
2022-11-10T23:57:16.325Z,6.00
